Time;durP1;ratioP1;P1;durP2;ratioP2;P2;SDS_P1;SDS_P2;PMS_P1;PMS_P2;Temp;Humidity;BMP_temperature;BMP_pressure;BME280_temperature;BME280_humidity;BME280_pressure;Samples;Min_cycle;Max_cycle;Signal;HPM_P1;HPM_P2
2021/08/23 00:00:40;;;;;;;5.28;3.00;;;;;;;;;;6224595;23;20005;-82
2021/08/23 00:03:10;;;;;;;4.60;2.80;;;;;;;;;;6227302;23;20052;-82
2021/08/23 00:05:36;;;;;;;7.97;3.15;;;;;;;;;;6225121;23;20004;-82
2021/08/23 00:08:06;;;;;;;4.47;3.03;;;;;;;;;;6224883;23;20000;-82
2021/08/23 00:10:33;;;;;;;10.23;3.00;;;;;;;;;;6225125;23;20005;-82
2021/08/23 00:13:02;;;;;;;3.33;2.60;;;;;;;;;;6220774;23;20039;-82
2021/08/23 00:15:29;;;;;;;5.60;3.10;;;;;;;;;;6224984;23;20279;-82
2021/08/23 00:17:56;;;;;;;3.30;2.60;;;;;;;;;;6198215;23;20000;-82
2021/08/23 00:20:32;;;;;;;7.03;2.95;;;;;;;;;;6198414;23;20079;-82
2021/08/23 00:22:59;;;;;;;5.53;3.05;;;;;;;;;;6200158;23;20009;-81
2021/08/23 00:25:27;;;;;;;3.67;2.95;;;;;;;;;;6197541;23;20020;-82
2021/08/23 00:27:54;;;;;;;4.07;2.83;;;;;;;;;;6198661;23;20016;-83
2021/08/23 00:30:20;;;;;;;5.43;3.08;;;;;;;;;;6199024;23;20063;-82
2021/08/23 00:32:47;;;;;;;7.53;3.25;;;;;;;;;;6224583;23;20000;-83
2021/08/23 00:35:22;;;;;;;5.45;3.05;;;;;;;;;;6221914;23;20032;-82
2021/08/23 00:37:50;;;;;;;4.63;3.13;;;;;;;;;;6194310;23;20024;-82
2021/08/23 00:40:16;;;;;;;4.88;3.22;;;;;;;;;;6218498;23;20512;-82
2021/08/23 00:42:42;;;;;;;8.25;3.25;;;;;;;;;;6220997;23;19996;-82
2021/08/23 00:45:09;;;;;;;5.53;3.28;;;;;;;;;;6193474;23;20076;-81
2021/08/23 00:47:35;;;;;;;4.82;3.05;;;;;;;;;;6192808;23;20434;-82
2021/08/23 00:50:04;;;;;;;5.38;3.00;;;;;;;;;;6222266;23;19992;-82
2021/08/23 00:52:34;;;;;;;5.07;3.10;;;;;;;;;;6198423;23;20094;-82
2021/08/23 00:55:01;;;;;;;6.78;3.25;;;;;;;;;;6226062;23;20004;-82
2021/08/23 00:57:29;;;;;;;5.78;3.00;;;;;;;;;;6202440;23;20000;-82
2021/08/23 00:59:56;;;;;;;6.25;3.22;;;;;;;;;;6231342;23;20043;-83
2021/08/23 01:03:01;;;;;;;4.60;3.42;;;;;;;;;;6227039;23;20036;-82
2021/08/23 01:05:31;;;;;;;5.57;3.42;;;;;;;;;;6227912;23;20020;-83
2021/08/23 01:08:17;;;;;;;6.65;3.15;;;;;;;;;;6221121;23;20001;-82
2021/08/23 01:10:47;;;;;;;5.88;3.40;;;;;;;;;;6220751;23;20000;-82
2021/08/23 01:13:15;;;;;;;5.60;3.25;;;;;;;;;;6219515;23;20355;-82
2021/08/23 01:15:42;;;;;;;4.93;3.03;;;;;;;;;;6194060;23;20011;-82
2021/08/23 01:18:08;;;;;;;7.97;3.17;;;;;;;;;;6221441;23;20003;-82
2021/08/23 01:20:40;;;;;;;5.78;2.95;;;;;;;;;;6220279;23;20004;-82
2021/08/23 01:23:08;;;;;;;5.38;3.13;;;;;;;;;;6220752;23;20003;-82
2021/08/23 01:25:35;;;;;;;4.43;3.20;;;;;;;;;;6220113;23;20023;-82
2021/08/23 01:28:19;;;;;;;5.00;3.45;;;;;;;;;;6193010;23;20005;-82
2021/08/23 01:30:54;;;;;;;8.57;3.53;;;;;;;;;;6193837;23;20015;-82
2021/08/23 01:33:20;;;;;;;6.05;3.10;;;;;;;;;;6219528;23;20437;-82
2021/08/23 01:35:47;;;;;;;6.28;3.42;;;;;;;;;;6220233;23;20362;-81
2021/08/23 01:38:14;;;;;;;6.35;3.70;;;;;;;;;;6221221;23;20059;-81
2021/08/23 01:40:41;;;;;;;4.65;3.35;;;;;;;;;;6194000;23;20084;-82
2021/08/23 01:43:09;;;;;;;5.95;3.35;;;;;;;;;;6220926;23;20000;-81
2021/08/23 01:45:39;;;;;;;5.30;3.05;;;;;;;;;;6195000;23;20004;-81
2021/08/23 01:48:10;;;;;;;5.50;3.50;;;;;;;;;;6196082;23;20008;-81
2021/08/23 01:50:39;;;;;;;5.15;3.30;;;;;;;;;;6196561;23;20083;-81
2021/08/23 01:53:16;;;;;;;5.90;2.83;;;;;;;;;;6221829;23;20000;-82
2021/08/23 01:55:48;;;;;;;5.82;3.72;;;;;;;;;;6220081;23;20000;-81
2021/08/23 01:58:22;;;;;;;5.63;3.10;;;;;;;;;;6192060;23;20028;-82
2021/08/23 02:00:52;;;;;;;5.47;3.08;;;;;;;;;;6220101;23;20532;-82
2021/08/23 02:03:22;;;;;;;5.72;3.30;;;;;;;;;;6193299;23;20004;-81
2021/08/23 02:05:53;;;;;;;4.95;3.10;;;;;;;;;;6221447;23;20001;-81
2021/08/23 02:08:22;;;;;;;5.90;3.50;;;;;;;;;;6192897;23;20007;-82
2021/08/23 02:10:51;;;;;;;3.67;2.85;;;;;;;;;;6193922;23;20337;-82
2021/08/23 02:13:22;;;;;;;6.97;3.35;;;;;;;;;;6194897;23;20000;-81
2021/08/23 02:15:49;;;;;;;7.82;3.25;;;;;;;;;;6220548;23;20020;-81
2021/08/23 02:18:18;;;;;;;6.20;3.42;;;;;;;;;;6218338;23;20075;-82
2021/08/23 02:20:48;;;;;;;5.50;4.00;;;;;;;;;;6192595;23;20009;-82
2021/08/23 02:23:17;;;;;;;5.65;4.32;;;;;;;;;;6197774;23;20001;-82
2021/08/23 02:25:44;;;;;;;4.63;3.50;;;;;;;;;;6198010;23;20017;-80
2021/08/23 02:28:09;;;;;;;5.40;3.58;;;;;;;;;;6222289;23;20008;-82
2021/08/23 02:30:38;;;;;;;7.13;3.53;;;;;;;;;;6223260;23;19997;-82
2021/08/23 02:33:04;;;;;;;4.90;3.20;;;;;;;;;;6221956;23;20003;-82
2021/08/23 02:35:32;;;;;;;5.60;3.25;;;;;;;;;;6221289;23;20001;-80
2021/08/23 02:37:57;;;;;;;6.40;3.47;;;;;;;;;;6220637;23;20043;-82
2021/08/23 02:40:23;;;;;;;5.45;2.95;;;;;;;;;;6194579;23;20005;-82
2021/08/23 02:42:48;;;;;;;4.95;3.20;;;;;;;;;;6221592;23;19996;-83
2021/08/23 02:45:14;;;;;;;5.85;3.13;;;;;;;;;;6221665;23;20058;-82
2021/08/23 02:47:40;;;;;;;7.40;3.05;;;;;;;;;;6221275;23;20031;-82
2021/08/23 02:50:08;;;;;;;5.65;3.00;;;;;;;;;;6221244;23;19993;-82
2021/08/23 02:52:34;;;;;;;4.32;3.17;;;;;;;;;;6221447;23;19997;-82
2021/08/23 02:55:00;;;;;;;4.80;3.30;;;;;;;;;;6221571;23;20075;-82
2021/08/23 02:57:27;;;;;;;6.10;3.25;;;;;;;;;;6193850;23;20001;-81
2021/08/23 02:59:52;;;;;;;4.15;3.00;;;;;;;;;;6221297;23;20427;-82
2021/08/23 03:02:18;;;;;;;5.72;3.10;;;;;;;;;;6220381;23;20007;-82
2021/08/23 03:04:45;;;;;;;7.72;3.20;;;;;;;;;;6222263;23;20462;-81
2021/08/23 03:07:12;;;;;;;4.03;3.20;;;;;;;;;;6199648;23;20001;-82
2021/08/23 03:09:38;;;;;;;4.65;3.15;;;;;;;;;;6225632;23;20000;-82
2021/08/23 03:12:06;;;;;;;6.25;3.50;;;;;;;;;;6223080;23;20395;-83
2021/08/23 03:14:31;;;;;;;5.57;3.38;;;;;;;;;;6221147;23;20001;-82
2021/08/23 03:16:57;;;;;;;5.38;3.10;;;;;;;;;;6220857;23;20008;-82
2021/08/23 03:19:23;;;;;;;4.93;3.03;;;;;;;;;;6223178;23;20067;-81
2021/08/23 03:21:48;;;;;;;5.50;3.33;;;;;;;;;;6221516;23;20021;-82
2021/08/23 03:24:14;;;;;;;5.22;3.05;;;;;;;;;;6195961;23;20091;-82
2021/08/23 03:26:39;;;;;;;3.85;3.05;;;;;;;;;;6197749;23;20000;-82
2021/08/23 03:29:06;;;;;;;5.70;3.50;;;;;;;;;;6226728;23;20010;-82
2021/08/23 03:31:32;;;;;;;4.88;3.08;;;;;;;;;;6220963;23;20378;-82
2021/08/23 03:33:58;;;;;;;6.25;3.40;;;;;;;;;;6220974;23;20024;-82
2021/08/23 03:36:26;;;;;;;6.13;3.35;;;;;;;;;;6220717;23;20410;-82
2021/08/23 03:38:51;;;;;;;5.03;3.33;;;;;;;;;;6221840;23;20000;-82
2021/08/23 03:41:17;;;;;;;5.15;3.40;;;;;;;;;;6221487;23;20032;-82
2021/08/23 03:43:43;;;;;;;6.20;3.33;;;;;;;;;;6220823;23;20048;-82
2021/08/23 03:46:09;;;;;;;7.32;3.70;;;;;;;;;;6194638;23;20012;-82
2021/08/23 03:48:35;;;;;;;7.88;4.30;;;;;;;;;;6221037;23;19996;-82
2021/08/23 03:51:02;;;;;;;6.18;4.40;;;;;;;;;;6194672;23;20000;-82
2021/08/23 03:53:27;;;;;;;7.53;4.00;;;;;;;;;;6195058;23;20497;-82
2021/08/23 03:55:54;;;;;;;6.05;3.97;;;;;;;;;;6223167;23;20004;-82
2021/08/23 03:58:19;;;;;;;6.07;4.10;;;;;;;;;;6193418;23;19997;-82
2021/08/23 04:00:45;;;;;;;6.10;4.32;;;;;;;;;;6220020;23;20004;-82
2021/08/23 04:03:10;;;;;;;5.25;3.65;;;;;;;;;;6220115;23;19997;-82
2021/08/23 04:05:36;;;;;;;5.18;3.70;;;;;;;;;;6219184;23;20001;-82
2021/08/23 04:08:02;;;;;;;4.88;3.28;;;;;;;;;;6220598;23;20024;-82
2021/08/23 04:10:27;;;;;;;6.45;3.40;;;;;;;;;;6194191;23;20001;-82
2021/08/23 04:12:53;;;;;;;7.68;3.63;;;;;;;;;;6220255;23;20003;-82
2021/08/23 04:15:18;;;;;;;6.78;3.67;;;;;;;;;;6220838;23;20008;-82
2021/08/23 04:17:44;;;;;;;3.70;2.80;;;;;;;;;;6220795;23;20047;-82
2021/08/23 04:20:12;;;;;;;5.50;3.63;;;;;;;;;;6193688;23;20000;-82
2021/08/23 04:22:39;;;;;;;4.90;3.70;;;;;;;;;;6219987;23;20075;-83
2021/08/23 04:25:05;;;;;;;5.30;3.63;;;;;;;;;;6220557;23;20051;-82
2021/08/23 04:27:32;;;;;;;7.40;3.42;;;;;;;;;;6219929;23;19997;-82
2021/08/23 04:29:57;;;;;;;6.38;3.85;;;;;;;;;;6220324;23;19992;-82
2021/08/23 04:32:23;;;;;;;5.82;3.85;;;;;;;;;;6218692;23;20001;-81
2021/08/23 04:34:48;;;;;;;5.35;3.13;;;;;;;;;;6194247;23;19993;-82
2021/08/23 04:37:14;;;;;;;6.47;3.42;;;;;;;;;;6222527;23;20411;-82
2021/08/23 04:39:39;;;;;;;5.82;3.30;;;;;;;;;;6223106;23;20063;-83
2021/08/23 04:42:06;;;;;;;5.18;3.50;;;;;;;;;;6224036;23;20091;-81
2021/08/23 04:44:31;;;;;;;4.20;3.40;;;;;;;;;;6220254;23;20464;-82
2021/08/23 04:46:57;;;;;;;5.60;3.45;;;;;;;;;;6196521;23;20004;-82
2021/08/23 04:49:24;;;;;;;5.40;3.05;;;;;;;;;;6224097;23;20054;-81
2021/08/23 04:51:50;;;;;;;5.85;3.60;;;;;;;;;;6221312;23;20004;-82
2021/08/23 04:54:15;;;;;;;6.30;3.90;;;;;;;;;;6219393;23;19992;-82
2021/08/23 04:56:40;;;;;;;4.72;3.28;;;;;;;;;;6219676;23;20007;-82
2021/08/23 04:59:06;;;;;;;7.32;3.72;;;;;;;;;;6219657;23;20009;-82
2021/08/23 05:01:31;;;;;;;8.75;3.38;;;;;;;;;;6220509;23;20453;-83
2021/08/23 05:03:57;;;;;;;5.82;3.75;;;;;;;;;;6195197;23;20000;-82
2021/08/23 05:06:24;;;;;;;6.53;3.92;;;;;;;;;;6223990;23;20001;-83
2021/08/23 05:08:50;;;;;;;9.95;4.22;;;;;;;;;;6221019;23;20004;-82
2021/08/23 05:11:15;;;;;;;8.77;3.78;;;;;;;;;;6220219;23;19997;-82
2021/08/23 05:13:42;;;;;;;5.32;3.63;;;;;;;;;;6219831;23;20000;-83
2021/08/23 05:16:08;;;;;;;5.88;3.75;;;;;;;;;;6223585;23;19997;-82
2021/08/23 05:18:33;;;;;;;5.97;3.70;;;;;;;;;;6218485;23;20020;-81
2021/08/23 05:21:03;;;;;;;5.32;3.78;;;;;;;;;;6166605;23;20016;-82
2021/08/23 05:23:28;;;;;;;4.70;3.20;;;;;;;;;;6220326;23;20024;-82
2021/08/23 05:25:56;;;;;;;5.35;3.45;;;;;;;;;;6220894;23;20083;-82
2021/08/23 05:28:26;;;;;;;6.80;3.90;;;;;;;;;;6222598;23;20059;-82
2021/08/23 05:30:54;;;;;;;5.40;3.17;;;;;;;;;;6222396;23;19997;-82
2021/08/23 05:33:19;;;;;;;6.00;3.38;;;;;;;;;;6223357;23;20004;-83
2021/08/23 05:35:45;;;;;;;7.20;3.85;;;;;;;;;;6220204;23;19993;-82
2021/08/23 05:38:11;;;;;;;4.57;3.30;;;;;;;;;;6218839;23;20036;-82
2021/08/23 05:40:36;;;;;;;5.45;3.22;;;;;;;;;;6218009;23;20055;-81
2021/08/23 05:43:02;;;;;;;4.95;3.17;;;;;;;;;;6217794;23;19997;-81
2021/08/23 05:45:28;;;;;;;6.53;2.92;;;;;;;;;;6216095;23;19997;-81
2021/08/23 05:47:54;;;;;;;5.38;3.10;;;;;;;;;;6190900;23;20001;-82
2021/08/23 05:50:19;;;;;;;6.30;3.08;;;;;;;;;;6192579;23;20465;-82
2021/08/23 05:52:48;;;;;;;4.85;3.15;;;;;;;;;;6218333;23;20335;-81
2021/08/23 05:55:14;;;;;;;5.93;3.20;;;;;;;;;;6219711;23;20001;-82
2021/08/23 05:57:53;;;;;;;6.05;3.35;;;;;;;;;;6224751;23;19997;-82
2021/08/23 06:00:21;;;;;;;6.40;3.15;;;;;;;;;;6222627;23;20005;-81
2021/08/23 06:02:46;;;;;;;4.93;3.17;;;;;;;;;;6224388;23;20031;-82
2021/08/23 06:05:23;;;;;;;4.38;3.17;;;;;;;;;;6225979;23;20063;-82
2021/08/23 06:07:50;;;;;;;7.47;3.33;;;;;;;;;;6227152;23;20046;-81
2021/08/23 06:10:16;;;;;;;6.15;3.00;;;;;;;;;;6228157;23;20015;-83
2021/08/23 06:12:49;;;;;;;10.00;3.45;;;;;;;;;;6233951;23;20047;-82
2021/08/23 06:22:25;;;;;;;6.63;2.72;;;;;;;;;;6212862;23;20007;-84
2021/08/23 06:25:42;;;;;;;5.88;3.20;;;;;;;;;;6149393;23;20013;-84
2021/08/23 06:30:52;;;;;;;6.00;3.30;;;;;;;;;;6231787;22;20026;-82
2021/08/23 06:33:22;;;;;;;5.55;3.67;;;;;;;;;;6255487;23;20035;-83
2021/08/23 06:35:49;;;;;;;5.67;3.20;;;;;;;;;;6255195;23;20388;-83
2021/08/23 06:38:24;;;;;;;5.57;2.90;;;;;;;;;;6264239;23;20066;-83
2021/08/23 06:41:28;;;;;;;7.35;3.00;;;;;;;;;;6272539;22;20048;-84
2021/08/23 06:43:59;;;;;;;7.85;3.42;;;;;;;;;;6264614;23;20011;-82
2021/08/23 06:47:04;;;;;;;6.00;2.95;;;;;;;;;;6244266;23;20007;-85
2021/08/23 06:50:00;;;;;;;5.22;3.08;;;;;;;;;;6247020;22;19988;-85
2021/08/23 06:56:38;;;;;;;6.97;3.20;;;;;;;;;;6145160;23;20061;-84
2021/08/23 06:59:04;;;;;;;9.20;3.15;;;;;;;;;;6176052;23;20475;-83
2021/08/23 07:01:34;;;;;;;4.57;2.65;;;;;;;;;;6172837;23;19981;-84
2021/08/23 07:04:02;;;;;;;7.65;2.75;;;;;;;;;;6157690;23;20020;-82
2021/08/23 07:06:54;;;;;;;4.40;2.70;;;;;;;;;;6145484;23;20391;-83
2021/08/23 07:09:51;;;;;;;5.15;2.70;;;;;;;;;;6180039;23;20009;-85
2021/08/23 13:36:39;;;;;;;4.80;2.10;;;;;;;;;;6281475;22;20035;-81
2021/08/23 13:39:08;;;;;;;6.63;2.08;;;;;;;;;;6290703;22;20468;-82
2021/08/23 13:41:48;;;;;;;3.92;2.00;;;;;;;;;;6288593;22;20004;-81
2021/08/23 13:44:19;;;;;;;3.58;1.92;;;;;;;;;;6291010;22;20002;-81
2021/08/23 13:47:29;;;;;;;4.25;2.08;;;;;;;;;;6292893;22;20007;-82
2021/08/23 13:49:55;;;;;;;23.45;3.42;;;;;;;;;;6282329;22;19984;-81
2021/08/23 13:52:24;;;;;;;17.77;2.65;;;;;;;;;;6293426;22;20026;-80
2021/08/23 13:54:50;;;;;;;19.77;3.17;;;;;;;;;;6276277;22;20131;-81
2021/08/23 15:26:29;;;;;;;4.03;1.42;;;;;;;;;;6281425;22;20026;-83
2021/08/23 15:28:54;;;;;;;4.63;1.70;;;;;;;;;;6281650;22;20329;-86
2021/08/23 15:31:20;;;;;;;1.88;1.40;;;;;;;;;;6276502;22;20325;-87
2021/08/23 15:33:46;;;;;;;4.13;1.52;;;;;;;;;;6275655;22;20075;-83
2021/08/23 15:36:12;;;;;;;2.70;1.48;;;;;;;;;;6273812;22;20027;-86
2021/08/23 15:38:37;;;;;;;3.53;1.30;;;;;;;;;;6248726;22;20004;-86
2021/08/23 15:41:03;;;;;;;5.55;1.77;;;;;;;;;;6248546;22;20014;-88
2021/08/23 15:43:31;;;;;;;4.15;1.30;;;;;;;;;;6248343;22;20425;-84
2021/08/23 15:45:56;;;;;;;2.45;1.40;;;;;;;;;;6248709;22;20000;-88
2021/08/23 15:48:22;;;;;;;25.20;3.65;;;;;;;;;;6248444;22;20004;-86
2021/08/23 15:50:49;;;;;;;4.57;1.55;;;;;;;;;;6275657;22;20409;-86
2021/08/23 15:53:15;;;;;;;2.33;1.30;;;;;;;;;;6248278;22;20074;-86
2021/08/23 15:55:41;;;;;;;1.98;1.40;;;;;;;;;;6275181;22;20006;-85
2021/08/23 15:58:07;;;;;;;2.58;1.20;;;;;;;;;;6275635;22;20425;-87
2021/08/23 16:00:32;;;;;;;1.98;1.30;;;;;;;;;;6247877;22;20007;-85
2021/08/23 16:02:58;;;;;;;2.22;1.33;;;;;;;;;;6276336;22;20000;-86
2021/08/23 16:05:27;;;;;;;1.80;1.27;;;;;;;;;;6275131;22;20383;-86
2021/08/23 16:07:52;;;;;;;3.10;1.30;;;;;;;;;;6248816;22;20007;-84
2021/08/23 16:10:18;;;;;;;2.15;1.42;;;;;;;;;;6249054;22;20000;-85
2021/08/23 16:12:44;;;;;;;1.77;1.13;;;;;;;;;;6274759;22;20494;-85
2021/08/23 16:15:12;;;;;;;7.88;1.70;;;;;;;;;;6247461;22;20463;-88
2021/08/23 16:17:39;;;;;;;8.27;2.20;;;;;;;;;;6247291;22;20003;-86
2021/08/23 16:20:05;;;;;;;2.45;1.52;;;;;;;;;;6247469;22;20007;-85
2021/08/23 16:22:31;;;;;;;3.17;1.40;;;;;;;;;;6275008;22;20080;-86
2021/08/23 16:24:56;;;;;;;3.92;1.27;;;;;;;;;;6275207;22;20437;-83
2021/08/23 16:27:22;;;;;;;2.20;1.60;;;;;;;;;;6275895;22;19999;-84
2021/08/23 16:29:51;;;;;;;6.13;1.90;;;;;;;;;;6273818;22;20440;-83
2021/08/23 16:32:16;;;;;;;5.47;1.92;;;;;;;;;;6275586;22;20376;-83
2021/08/23 16:34:42;;;;;;;2.35;1.40;;;;;;;;;;6273896;22;20003;-84
2021/08/23 16:37:07;;;;;;;4.20;1.48;;;;;;;;;;6275165;22;20006;-86
2021/08/23 16:39:33;;;;;;;5.03;1.30;;;;;;;;;;6243567;22;20027;-86
2021/08/23 16:42:01;;;;;;;2.45;1.30;;;;;;;;;;6274177;22;20004;-84
2021/08/23 16:44:30;;;;;;;4.78;1.48;;;;;;;;;;6274572;22;19995;-84
2021/08/23 16:47:00;;;;;;;2.33;1.50;;;;;;;;;;6273156;22;20062;-84
2021/08/23 16:49:28;;;;;;;3.45;1.52;;;;;;;;;;6272002;22;20022;-84
2021/08/23 16:52:00;;;;;;;2.10;1.50;;;;;;;;;;6246211;22;20011;-85
2021/08/23 16:54:30;;;;;;;2.40;1.90;;;;;;;;;;6274200;22;20434;-86
2021/08/23 16:57:01;;;;;;;2.42;1.63;;;;;;;;;;6274294;22;19995;-85
2021/08/23 16:59:31;;;;;;;5.22;1.63;;;;;;;;;;6244575;22;20004;-85
2021/08/23 17:02:00;;;;;;;2.90;1.73;;;;;;;;;;6247171;22;20448;-85
2021/08/23 17:04:32;;;;;;;3.30;1.60;;;;;;;;;;6273861;22;20000;-84
2021/08/23 17:07:02;;;;;;;1.58;1.48;;;;;;;;;;6274345;22;20468;-85
2021/08/23 17:09:30;;;;;;;;;;;;;;;;;;6271381;22;20007;-83
2021/08/23 17:11:58;;;;;;;3.03;1.83;;;;;;;;;;6247563;22;19907;-87
2021/08/23 17:14:28;;;;;;;1.85;1.52;;;;;;;;;;6248018;22;20076;-88
2021/08/23 17:16:57;;;;;;;10.85;10.10;;;;;;;;;;6246973;22;20074;-88
2021/08/23 17:19:27;;;;;;;4.95;1.40;;;;;;;;;;6273340;22;20499;-87
2021/08/23 17:21:56;;;;;;;3.70;1.60;;;;;;;;;;6274226;22;19999;-87
2021/08/23 17:24:25;;;;;;;1.98;1.60;;;;;;;;;;6244478;22;20057;-87
2021/08/23 17:26:54;;;;;;;6.07;1.85;;;;;;;;;;6268183;22;20016;-88
2021/08/23 17:29:26;;;;;;;1.70;1.27;;;;;;;;;;6270027;22;20007;-84
2021/08/23 17:31:52;;;;;;;1.45;1.35;;;;;;;;;;6273145;22;20422;-86
2021/08/23 17:34:19;;;;;;;3.58;1.63;;;;;;;;;;6274512;22;20000;-88
2021/08/23 17:36:45;;;;;;;2.75;1.52;;;;;;;;;;6274688;22;20008;-87
2021/08/23 17:39:10;;;;;;;2.92;1.60;;;;;;;;;;6273324;22;20004;-87
2021/08/23 17:41:36;;;;;;;3.08;1.73;;;;;;;;;;6271935;22;20164;-86
2021/08/23 17:44:02;;;;;;;4.32;1.90;;;;;;;;;;6274095;22;20373;-87
2021/08/23 17:46:27;;;;;;;2.75;1.60;;;;;;;;;;6275791;22;20372;-85
2021/08/23 19:24:37;;;;;;;3.35;2.67;;;;;;;;;;6266006;22;20019;-82
2021/08/23 19:28:14;;;;;;;5.78;2.97;;;;;;;;;;6283747;22;20093;-82
